Aeroporto :
LOGIN :

Iscrizione | Disclaimer

   EN    FR    IT 

 










Sommario :    VFR   VFR Marginale   IFR   IFR Intensivo   IFR Molto Intensivo
Visibilità : 
Base nubi : 
>= 8 km
>= 3000ft
5 / 8 km
1000 / 3000 ft
1500m / 5 km
500 / 1000 ft
800 / 1500m
200 / 500 ft
< 800m
< 200 ft
Simboli :   Temporali  Nebbia  Neve Forte  Precipitazioni Forti  Vento > 20 kt
SIGMETs :   Varie  Temporali  Ghiacco  Turbolenza  Onda orograficha  Ceneri Vulcaniche






- Altitudine del aeroporto : 268 ft
- Codice IATA : BFS


EGAA - Belfast Aldergrove

ULTIMO METAR :
  • 292050Z 21011KT 9999 BKN018 BKN023 OVC029 08/07 Q1001

METARs OBSOLETI :
  • 292020Z 21011KT 9999 BKN019 BKN024 08/07 Q1000
  • 291950Z 23015KT 9999 BKN019 BKN025 BKN032 08/07 Q1000
  • 291920Z 22013KT 9999 BKN018 BKN023 08/07 Q1000
  • 291850Z 22012KT 9999 BKN018 BKN028 08/07 Q1000
  • 291820Z 22011KT 9999 SCT017 BKN030 08/07 Q1000

TAF TAF EGAA
Valido dal 29 a 18 ore il 30 a 18 ore UTC


291700Z 2918/3018 22013KT 9999 FEW012 SCT025
PROB30
TEMPO 2918/3005 BKN012
TEMPO 3005/3012 6000 RA -RADZ BKN008
BECMG 3008/3011 20018G28KT
PROB30
TEMPO 3008/3011 4000 RADZ BKN004
BECMG 3011/3014 26018G28KT



MetMap, La meteo Aeronautica in un colpo d'occhio ! - Copyright ORBIFLY Dicembre 2007 - Disclaimer

ORBIFLY MET'MAP TEAM :

Programmazione e sviluppo : Alexandra Zaïnal
Concezione : Baudouin d'Aumeries
Aiuto per la programmazione : Marc-Olivier Méhu
Supporto tecnico e logistico : Manuel Goepfert
Aiuto per la traduzione : Arnaldo La Scala

Contatto : metmap@orbifly.com




FONTI E CREDITI :

   NOAA